sensor_id;sensor_type;location;lat;lon;timestamp;P1;durP1;ratioP1;P2;durP2;ratioP2
61570;SDS011;47463;49.884;10.010;2023-06-24T00:00:00;9.4;;;6.8;;
61570;SDS011;47463;49.884;10.010;2023-06-24T00:05:00;9;;;7.2;;
61570;SDS011;47463;49.884;10.010;2023-06-24T00:10:00;9;;;7.2;;
61570;SDS011;47463;49.884;10.010;2023-06-24T00:15:00;8.8;;;7.2;;
61570;SDS011;47463;49.884;10.010;2023-06-24T00:20:00;8.7;;;7.1;;
61570;SDS011;47463;49.884;10.010;2023-06-24T00:25:00;9.6;;;6.6;;
61570;SDS011;47463;49.884;10.010;2023-06-24T00:30:00;8.3;;;6.4;;
61570;SDS011;47463;49.884;10.010;2023-06-24T00:35:00;9.4;;;6.7;;
61570;SDS011;47463;49.884;10.010;2023-06-24T00:40:00;9.4;;;6.7;;
61570;SDS011;47463;49.884;10.010;2023-06-24T00:45:00;9.4;;;7.3;;
61570;SDS011;47463;49.884;10.010;2023-06-24T00:50:00;11.3;;;7;;
61570;SDS011;47463;49.884;10.010;2023-06-24T00:55:00;9.1;;;6.5;;
61570;SDS011;47463;49.884;10.010;2023-06-24T01:00:00;9.5;;;7.1;;
61570;SDS011;47463;49.884;10.010;2023-06-24T01:05:00;11.1;;;7.4;;
61570;SDS011;47463;49.884;10.010;2023-06-24T01:10:00;11.1;;;7.4;;
61570;SDS011;47463;49.884;10.010;2023-06-24T01:15:00;10.4;;;7.6;;
61570;SDS011;47463;49.884;10.010;2023-06-24T01:20:02;10.9;;;7.6;;
61570;SDS011;47463;49.884;10.010;2023-06-24T01:25:02;8.7;;;7.5;;
61570;SDS011;47463;49.884;10.010;2023-06-24T01:30:07;9.1;;;7.1;;
61570;SDS011;47463;49.884;10.010;2023-06-24T01:35:00;9;;;7.3;;
61570;SDS011;47463;49.884;10.010;2023-06-24T01:40:01;9;;;7.3;;
61570;SDS011;47463;49.884;10.010;2023-06-24T01:45:00;9.5;;;7.4;;
61570;SDS011;47463;49.884;10.010;2023-06-24T01:50:00;9.1;;;7.5;;
61570;SDS011;47463;49.884;10.010;2023-06-24T01:55:00;8.8;;;7.2;;
61570;SDS011;47463;49.884;10.010;2023-06-24T02:00:00;11.1;;;6.9;;
61570;SDS011;47463;49.884;10.010;2023-06-24T02:05:00;9.5;;;7;;
61570;SDS011;47463;49.884;10.010;2023-06-24T02:10:00;9.5;;;7;;
61570;SDS011;47463;49.884;10.010;2023-06-24T02:15:00;9.1;;;7.1;;
61570;SDS011;47463;49.884;10.010;2023-06-24T02:20:00;9.9;;;7.3;;
61570;SDS011;47463;49.884;10.010;2023-06-24T02:25:00;8.3;;;6.7;;
61570;SDS011;47463;49.884;10.010;2023-06-24T02:30:00;9.6;;;7;;
61570;SDS011;47463;49.884;10.010;2023-06-24T02:35:00;9.8;;;8.7;;
61570;SDS011;47463;49.884;10.010;2023-06-24T02:40:00;9.8;;;8.7;;
61570;SDS011;47463;49.884;10.010;2023-06-24T02:45:00;14.3;;;8.6;;
61570;SDS011;47463;49.884;10.010;2023-06-24T02:50:00;10.7;;;8.1;;
61570;SDS011;47463;49.884;10.010;2023-06-24T02:55:00;12;;;8.3;;
61570;SDS011;47463;49.884;10.010;2023-06-24T03:00:00;9.5;;;7.5;;
61570;SDS011;47463;49.884;10.010;2023-06-24T03:05:00;9.1;;;7.6;;
61570;SDS011;47463;49.884;10.010;2023-06-24T03:10:00;9.1;;;7.6;;
61570;SDS011;47463;49.884;10.010;2023-06-24T03:15:00;10.3;;;7.6;;
61570;SDS011;47463;49.884;10.010;2023-06-24T03:20:00;11.1;;;7.4;;
61570;SDS011;47463;49.884;10.010;2023-06-24T03:25:00;14.7;;;7.8;;
61570;SDS011;47463;49.884;10.010;2023-06-24T03:30:00;13.4;;;8.6;;
61570;SDS011;47463;49.884;10.010;2023-06-24T03:35:00;10.4;;;8.3;;
61570;SDS011;47463;49.884;10.010;2023-06-24T03:40:00;10.4;;;8.3;;
61570;SDS011;47463;49.884;10.010;2023-06-24T03:45:00;9;;;7.3;;
61570;SDS011;47463;49.884;10.010;2023-06-24T03:50:00;9.2;;;8;;
61570;SDS011;47463;49.884;10.010;2023-06-24T03:55:00;12.2;;;8.7;;
61570;SDS011;47463;49.884;10.010;2023-06-24T04:00:00;13.5;;;8.6;;
61570;SDS011;47463;49.884;10.010;2023-06-24T04:05:00;9.2;;;7.9;;
61570;SDS011;47463;49.884;10.010;2023-06-24T04:10:00;9.2;;;7.9;;
61570;SDS011;47463;49.884;10.010;2023-06-24T04:15:00;9.9;;;8.3;;
61570;SDS011;47463;49.884;10.010;2023-06-24T04:20:00;10.6;;;7.6;;
61570;SDS011;47463;49.884;10.010;2023-06-24T04:25:00;11.9;;;9;;
61570;SDS011;47463;49.884;10.010;2023-06-24T04:30:00;10;;;8.5;;
61570;SDS011;47463;49.884;10.010;2023-06-24T04:35:00;11.1;;;8.6;;
61570;SDS011;47463;49.884;10.010;2023-06-24T04:40:00;11.1;;;8.6;;
61570;SDS011;47463;49.884;10.010;2023-06-24T04:45:00;11.5;;;8.6;;
61570;SDS011;47463;49.884;10.010;2023-06-24T04:50:00;11;;;9.1;;
61570;SDS011;47463;49.884;10.010;2023-06-24T04:55:00;13;;;8.7;;
61570;SDS011;47463;49.884;10.010;2023-06-24T05:00:00;14.1;;;8.7;;
61570;SDS011;47463;49.884;10.010;2023-06-24T05:05:00;12.4;;;9;;
61570;SDS011;47463;49.884;10.010;2023-06-24T05:10:00;12.4;;;9;;
61570;SDS011;47463;49.884;10.010;2023-06-24T05:15:00;14;;;9.3;;
61570;SDS011;47463;49.884;10.010;2023-06-24T05:20:00;13.6;;;8.8;;
61570;SDS011;47463;49.884;10.010;2023-06-24T05:25:00;11.9;;;9.2;;
61570;SDS011;47463;49.884;10.010;2023-06-24T05:30:00;9.6;;;8.2;;
61570;SDS011;47463;49.884;10.010;2023-06-24T05:35:00;9.3;;;8.3;;
61570;SDS011;47463;49.884;10.010;2023-06-24T05:40:00;9.3;;;8.3;;
61570;SDS011;47463;49.884;10.010;2023-06-24T05:45:00;10.4;;;8.8;;
61570;SDS011;47463;49.884;10.010;2023-06-24T05:50:00;11;;;8.8;;
61570;SDS011;47463;49.884;10.010;2023-06-24T05:55:00;12.1;;;8.5;;
61570;SDS011;47463;49.884;10.010;2023-06-24T06:00:00;8.8;;;7.6;;
61570;SDS011;47463;49.884;10.010;2023-06-24T06:05:00;7.3;;;6.1;;
61570;SDS011;47463;49.884;10.010;2023-06-24T06:10:00;7.3;;;6.1;;
61570;SDS011;47463;49.884;10.010;2023-06-24T06:15:00;7.9;;;6.2;;
61570;SDS011;47463;49.884;10.010;2023-06-24T06:20:00;7.7;;;6.3;;
61570;SDS011;47463;49.884;10.010;2023-06-24T06:25:00;6.7;;;5.7;;
61570;SDS011;47463;49.884;10.010;2023-06-24T06:30:00;7.1;;;5.9;;
61570;SDS011;47463;49.884;10.010;2023-06-24T06:35:00;7.1;;;5.2;;
61570;SDS011;47463;49.884;10.010;2023-06-24T06:40:00;7.1;;;5.2;;
61570;SDS011;47463;49.884;10.010;2023-06-24T06:45:00;7.1;;;5.8;;
61570;SDS011;47463;49.884;10.010;2023-06-24T06:50:00;7.8;;;6.5;;
61570;SDS011;47463;49.884;10.010;2023-06-24T06:55:00;7.9;;;5.7;;
61570;SDS011;47463;49.884;10.010;2023-06-24T07:00:00;6.8;;;6.1;;
61570;SDS011;47463;49.884;10.010;2023-06-24T07:05:00;8;;;5.9;;
61570;SDS011;47463;49.884;10.010;2023-06-24T07:10:00;8;;;5.9;;
61570;SDS011;47463;49.884;10.010;2023-06-24T07:15:00;7.4;;;6.1;;
61570;SDS011;47463;49.884;10.010;2023-06-24T07:20:00;7;;;6.3;;
61570;SDS011;47463;49.884;10.010;2023-06-24T07:25:00;8;;;6.6;;
61570;SDS011;47463;49.884;10.010;2023-06-24T07:30:00;7;;;6.3;;
61570;SDS011;47463;49.884;10.010;2023-06-24T07:35:00;8.3;;;7;;
61570;SDS011;47463;49.884;10.010;2023-06-24T07:40:00;8.3;;;7;;
61570;SDS011;47463;49.884;10.010;2023-06-24T07:45:00;7.8;;;6.3;;
61570;SDS011;47463;49.884;10.010;2023-06-24T07:50:00;8.3;;;6.7;;
61570;SDS011;47463;49.884;10.010;2023-06-24T07:55:00;8.3;;;6.9;;
61570;SDS011;47463;49.884;10.010;2023-06-24T08:00:00;9;;;6.9;;
61570;SDS011;47463;49.884;10.010;2023-06-24T08:05:00;12.2;;;6.6;;
61570;SDS011;47463;49.884;10.010;2023-06-24T08:10:00;12.2;;;6.6;;
61570;SDS011;47463;49.884;10.010;2023-06-24T08:15:00;10.4;;;6.8;;
61570;SDS011;47463;49.884;10.010;2023-06-24T08:20:00;10.1;;;7;;
61570;SDS011;47463;49.884;10.010;2023-06-24T08:25:00;10.5;;;7.5;;
61570;SDS011;47463;49.884;10.010;2023-06-24T08:30:00;11.9;;;7.5;;
61570;SDS011;47463;49.884;10.010;2023-06-24T08:35:00;8.8;;;6.4;;
61570;SDS011;47463;49.884;10.010;2023-06-24T08:40:00;8.8;;;6.4;;
61570;SDS011;47463;49.884;10.010;2023-06-24T08:45:00;9;;;6.1;;
61570;SDS011;47463;49.884;10.010;2023-06-24T08:50:01;10.6;;;7.3;;
61570;SDS011;47463;49.884;10.010;2023-06-24T08:55:00;7.7;;;6.4;;
61570;SDS011;47463;49.884;10.010;2023-06-24T09:00:00;10.1;;;6.9;;
61570;SDS011;47463;49.884;10.010;2023-06-24T09:05:00;9.4;;;7;;
61570;SDS011;47463;49.884;10.010;2023-06-24T09:10:00;9.4;;;7;;
61570;SDS011;47463;49.884;10.010;2023-06-24T09:15:00;8.7;;;6.2;;
61570;SDS011;47463;49.884;10.010;2023-06-24T09:20:03;8;;;6.9;;
61570;SDS011;47463;49.884;10.010;2023-06-24T09:25:00;9.3;;;7.6;;
61570;SDS011;47463;49.884;10.010;2023-06-24T09:30:00;11.3;;;7.3;;
61570;SDS011;47463;49.884;10.010;2023-06-24T09:35:02;9.4;;;6.9;;
61570;SDS011;47463;49.884;10.010;2023-06-24T09:40:00;9.4;;;6.9;;
61570;SDS011;47463;49.884;10.010;2023-06-24T09:45:02;8.8;;;6.1;;
61570;SDS011;47463;49.884;10.010;2023-06-24T09:50:00;7.8;;;5.8;;
61570;SDS011;47463;49.884;10.010;2023-06-24T09:55:00;10.6;;;6.1;;
61570;SDS011;47463;49.884;10.010;2023-06-24T10:00:00;7.4;;;5.8;;
61570;SDS011;47463;49.884;10.010;2023-06-24T10:05:00;9.5;;;5.7;;
61570;SDS011;47463;49.884;10.010;2023-06-24T10:10:00;9.5;;;5.7;;
61570;SDS011;47463;49.884;10.010;2023-06-24T10:15:00;5.8;;;5.2;;
61570;SDS011;47463;49.884;10.010;2023-06-24T10:20:03;6.7;;;5.6;;
61570;SDS011;47463;49.884;10.010;2023-06-24T10:25:00;7;;;5.8;;
61570;SDS011;47463;49.884;10.010;2023-06-24T10:30:01;10.6;;;6.2;;
61570;SDS011;47463;49.884;10.010;2023-06-24T10:35:00;7;;;5.7;;
61570;SDS011;47463;49.884;10.010;2023-06-24T10:40:00;7;;;5.7;;
61570;SDS011;47463;49.884;10.010;2023-06-24T10:45:01;6.2;;;5.4;;
61570;SDS011;47463;49.884;10.010;2023-06-24T10:50:00;6.7;;;5.9;;
61570;SDS011;47463;49.884;10.010;2023-06-24T10:55:00;6.7;;;5.5;;
61570;SDS011;47463;49.884;10.010;2023-06-24T11:00:00;7.3;;;5.9;;
61570;SDS011;47463;49.884;10.010;2023-06-24T11:05:01;6.4;;;5.4;;
61570;SDS011;47463;49.884;10.010;2023-06-24T11:10:01;6.4;;;5.4;;
61570;SDS011;47463;49.884;10.010;2023-06-24T11:15:01;7.4;;;5.4;;
61570;SDS011;47463;49.884;10.010;2023-06-24T11:20:00;7.7;;;5.8;;
61570;SDS011;47463;49.884;10.010;2023-06-24T11:25:00;8.3;;;6.2;;
61570;SDS011;47463;49.884;10.010;2023-06-24T11:30:00;7.7;;;5.4;;
61570;SDS011;47463;49.884;10.010;2023-06-24T11:35:00;8.1;;;5.8;;
61570;SDS011;47463;49.884;10.010;2023-06-24T11:40:00;8.1;;;5.8;;
61570;SDS011;47463;49.884;10.010;2023-06-24T11:45:00;7.5;;;5.8;;
61570;SDS011;47463;49.884;10.010;2023-06-24T11:50:00;9.2;;;5.9;;
61570;SDS011;47463;49.884;10.010;2023-06-24T11:55:00;6.3;;;5.2;;
61570;SDS011;47463;49.884;10.010;2023-06-24T12:00:00;7.5;;;6;;
61570;SDS011;47463;49.884;10.010;2023-06-24T12:05:01;6.4;;;5.3;;
61570;SDS011;47463;49.884;10.010;2023-06-24T12:10:00;6.4;;;5.3;;
61570;SDS011;47463;49.884;10.010;2023-06-24T12:15:00;7.5;;;5.8;;
61570;SDS011;47463;49.884;10.010;2023-06-24T12:20:00;7;;;5.6;;
61570;SDS011;47463;49.884;10.010;2023-06-24T12:25:00;7.2;;;5.6;;
61570;SDS011;47463;49.884;10.010;2023-06-24T12:30:00;9.3;;;6.2;;
61570;SDS011;47463;49.884;10.010;2023-06-24T12:35:00;6.7;;;5.5;;
61570;SDS011;47463;49.884;10.010;2023-06-24T12:40:00;6.7;;;5.5;;
61570;SDS011;47463;49.884;10.010;2023-06-24T12:45:00;6.2;;;5.5;;
61570;SDS011;47463;49.884;10.010;2023-06-24T12:50:00;8;;;6.2;;
61570;SDS011;47463;49.884;10.010;2023-06-24T12:55:00;8;;;5.8;;
61570;SDS011;47463;49.884;10.010;2023-06-24T13:00:00;7;;;5.6;;
61570;SDS011;47463;49.884;10.010;2023-06-24T13:05:00;8.7;;;5.7;;
61570;SDS011;47463;49.884;10.010;2023-06-24T13:10:00;8.7;;;5.7;;
61570;SDS011;47463;49.884;10.010;2023-06-24T13:15:00;6.6;;;5.9;;
61570;SDS011;47463;49.884;10.010;2023-06-24T13:20:00;7.3;;;5.6;;
61570;SDS011;47463;49.884;10.010;2023-06-24T13:25:00;7.2;;;5.8;;
61570;SDS011;47463;49.884;10.010;2023-06-24T13:30:00;10.1;;;6.5;;
61570;SDS011;47463;49.884;10.010;2023-06-24T13:35:00;7.7;;;6;;
61570;SDS011;47463;49.884;10.010;2023-06-24T13:40:00;7.7;;;6;;
61570;SDS011;47463;49.884;10.010;2023-06-24T13:45:00;6.5;;;5.8;;
61570;SDS011;47463;49.884;10.010;2023-06-24T13:50:00;7.6;;;5.9;;
61570;SDS011;47463;49.884;10.010;2023-06-24T13:55:00;10.6;;;6;;
61570;SDS011;47463;49.884;10.010;2023-06-24T14:00:00;7.8;;;5.6;;
61570;SDS011;47463;49.884;10.010;2023-06-24T14:05:00;8.3;;;6;;
61570;SDS011;47463;49.884;10.010;2023-06-24T14:10:00;8.3;;;6;;
61570;SDS011;47463;49.884;10.010;2023-06-24T14:15:00;7.1;;;5.4;;
61570;SDS011;47463;49.884;10.010;2023-06-24T14:20:00;8.3;;;5.6;;
61570;SDS011;47463;49.884;10.010;2023-06-24T14:25:00;6.4;;;5.6;;
61570;SDS011;47463;49.884;10.010;2023-06-24T14:30:00;6.8;;;5.8;;
61570;SDS011;47463;49.884;10.010;2023-06-24T14:35:00;8.6;;;5.8;;
61570;SDS011;47463;49.884;10.010;2023-06-24T14:40:00;8.6;;;5.8;;
61570;SDS011;47463;49.884;10.010;2023-06-24T14:45:00;6.9;;;5.2;;
61570;SDS011;47463;49.884;10.010;2023-06-24T14:50:00;6.7;;;5.4;;
61570;SDS011;47463;49.884;10.010;2023-06-24T14:55:00;7.3;;;5.4;;
61570;SDS011;47463;49.884;10.010;2023-06-24T15:00:00;5.5;;;4.9;;
61570;SDS011;47463;49.884;10.010;2023-06-24T15:05:00;6.5;;;5.5;;
61570;SDS011;47463;49.884;10.010;2023-06-24T15:10:00;6.5;;;5.5;;
61570;SDS011;47463;49.884;10.010;2023-06-24T15:15:00;7.3;;;5.4;;
61570;SDS011;47463;49.884;10.010;2023-06-24T15:20:00;6.9;;;5.4;;
61570;SDS011;47463;49.884;10.010;2023-06-24T15:25:00;7.1;;;5.6;;
61570;SDS011;47463;49.884;10.010;2023-06-24T15:30:00;6.1;;;5.5;;
61570;SDS011;47463;49.884;10.010;2023-06-24T15:35:01;6.3;;;5.3;;
61570;SDS011;47463;49.884;10.010;2023-06-24T15:40:00;6.3;;;5.3;;
61570;SDS011;47463;49.884;10.010;2023-06-24T15:45:00;8.6;;;5.9;;
61570;SDS011;47463;49.884;10.010;2023-06-24T15:50:00;10.4;;;6;;
61570;SDS011;47463;49.884;10.010;2023-06-24T15:55:00;7.5;;;6;;
61570;SDS011;47463;49.884;10.010;2023-06-24T16:00:00;8.8;;;6.1;;
61570;SDS011;47463;49.884;10.010;2023-06-24T16:05:00;8.6;;;6;;
61570;SDS011;47463;49.884;10.010;2023-06-24T16:10:00;8.6;;;6;;
61570;SDS011;47463;49.884;10.010;2023-06-24T16:15:00;9.5;;;6.3;;
61570;SDS011;47463;49.884;10.010;2023-06-24T16:20:00;7.3;;;5.8;;
61570;SDS011;47463;49.884;10.010;2023-06-24T16:25:00;8.9;;;6.1;;
61570;SDS011;47463;49.884;10.010;2023-06-24T16:30:00;12.1;;;5.9;;
61570;SDS011;47463;49.884;10.010;2023-06-24T16:35:00;6.4;;;5.6;;
61570;SDS011;47463;49.884;10.010;2023-06-24T16:40:00;6.4;;;5.6;;
61570;SDS011;47463;49.884;10.010;2023-06-24T16:45:00;7.4;;;5.9;;
61570;SDS011;47463;49.884;10.010;2023-06-24T16:50:00;7.2;;;5.4;;
61570;SDS011;47463;49.884;10.010;2023-06-24T16:55:00;6.2;;;5.1;;
61570;SDS011;47463;49.884;10.010;2023-06-24T17:00:00;7;;;5.5;;
61570;SDS011;47463;49.884;10.010;2023-06-24T17:05:00;9.4;;;6.1;;
61570;SDS011;47463;49.884;10.010;2023-06-24T17:10:00;9.4;;;6.1;;
61570;SDS011;47463;49.884;10.010;2023-06-24T17:15:00;9;;;5.5;;
61570;SDS011;47463;49.884;10.010;2023-06-24T17:20:00;6.4;;;5.7;;
61570;SDS011;47463;49.884;10.010;2023-06-24T17:25:00;8.3;;;6;;
61570;SDS011;47463;49.884;10.010;2023-06-24T17:30:00;7.4;;;6;;
61570;SDS011;47463;49.884;10.010;2023-06-24T17:35:00;7.5;;;6.4;;
61570;SDS011;47463;49.884;10.010;2023-06-24T17:40:00;7.5;;;6.4;;
61570;SDS011;47463;49.884;10.010;2023-06-24T17:45:00;7.7;;;6.2;;
61570;SDS011;47463;49.884;10.010;2023-06-24T17:50:00;8.4;;;6.5;;
61570;SDS011;47463;49.884;10.010;2023-06-24T17:55:00;7.5;;;6.1;;
61570;SDS011;47463;49.884;10.010;2023-06-24T18:00:00;6.8;;;5.9;;
61570;SDS011;47463;49.884;10.010;2023-06-24T18:05:00;8.1;;;6.4;;
61570;SDS011;47463;49.884;10.010;2023-06-24T18:10:00;8.1;;;6.4;;
61570;SDS011;47463;49.884;10.010;2023-06-24T18:15:00;7;;;5.8;;
61570;SDS011;47463;49.884;10.010;2023-06-24T18:20:00;7.9;;;5.4;;
61570;SDS011;47463;49.884;10.010;2023-06-24T18:25:00;6.5;;;5.8;;
61570;SDS011;47463;49.884;10.010;2023-06-24T18:30:00;8.6;;;5.7;;
61570;SDS011;47463;49.884;10.010;2023-06-24T18:35:00;8.8;;;5.7;;
61570;SDS011;47463;49.884;10.010;2023-06-24T18:40:00;8.8;;;5.7;;
61570;SDS011;47463;49.884;10.010;2023-06-24T18:45:00;7.4;;;5.7;;
61570;SDS011;47463;49.884;10.010;2023-06-24T18:50:00;8.1;;;6.2;;
61570;SDS011;47463;49.884;10.010;2023-06-24T18:55:00;8.4;;;5.7;;
61570;SDS011;47463;49.884;10.010;2023-06-24T19:00:00;9.1;;;6.1;;
61570;SDS011;47463;49.884;10.010;2023-06-24T19:05:00;9.9;;;5.8;;
61570;SDS011;47463;49.884;10.010;2023-06-24T19:10:00;9.9;;;5.8;;
61570;SDS011;47463;49.884;10.010;2023-06-24T19:15:00;7.7;;;5.5;;
61570;SDS011;47463;49.884;10.010;2023-06-24T19:20:00;7.5;;;5.8;;
61570;SDS011;47463;49.884;10.010;2023-06-24T19:25:00;8.8;;;6.6;;
61570;SDS011;47463;49.884;10.010;2023-06-24T19:30:00;8.5;;;6.1;;
61570;SDS011;47463;49.884;10.010;2023-06-24T19:35:00;8.3;;;6;;
61570;SDS011;47463;49.884;10.010;2023-06-24T19:40:00;8.3;;;6;;
61570;SDS011;47463;49.884;10.010;2023-06-24T19:45:00;9.1;;;6.2;;
61570;SDS011;47463;49.884;10.010;2023-06-24T19:50:00;7.5;;;6.5;;
61570;SDS011;47463;49.884;10.010;2023-06-24T19:55:00;10;;;6.3;;
61570;SDS011;47463;49.884;10.010;2023-06-24T20:00:00;7.7;;;6.2;;
61570;SDS011;47463;49.884;10.010;2023-06-24T20:05:00;7;;;6.2;;
61570;SDS011;47463;49.884;10.010;2023-06-24T20:10:00;7;;;6.2;;
61570;SDS011;47463;49.884;10.010;2023-06-24T20:15:00;9.5;;;6.5;;
61570;SDS011;47463;49.884;10.010;2023-06-24T20:20:00;8;;;6.2;;
61570;SDS011;47463;49.884;10.010;2023-06-24T20:25:00;9.9;;;6.4;;
61570;SDS011;47463;49.884;10.010;2023-06-24T20:30:00;9.1;;;6.7;;
61570;SDS011;47463;49.884;10.010;2023-06-24T20:35:00;7.6;;;6.1;;
61570;SDS011;47463;49.884;10.010;2023-06-24T20:40:00;7.6;;;6.1;;
61570;SDS011;47463;49.884;10.010;2023-06-24T20:45:00;8;;;6.3;;
61570;SDS011;47463;49.884;10.010;2023-06-24T20:50:00;10;;;6.4;;
61570;SDS011;47463;49.884;10.010;2023-06-24T20:55:00;8.2;;;6.2;;
61570;SDS011;47463;49.884;10.010;2023-06-24T21:00:00;9.4;;;6.3;;
61570;SDS011;47463;49.884;10.010;2023-06-24T21:05:00;8.3;;;6.4;;
61570;SDS011;47463;49.884;10.010;2023-06-24T21:10:00;8.3;;;6.4;;
61570;SDS011;47463;49.884;10.010;2023-06-24T21:15:00;7.4;;;5.8;;
61570;SDS011;47463;49.884;10.010;2023-06-24T21:20:00;9.3;;;6.4;;
61570;SDS011;47463;49.884;10.010;2023-06-24T21:25:00;9;;;6;;
61570;SDS011;47463;49.884;10.010;2023-06-24T21:30:00;8.6;;;6.5;;
61570;SDS011;47463;49.884;10.010;2023-06-24T21:35:00;9.5;;;7;;
61570;SDS011;47463;49.884;10.010;2023-06-24T21:40:00;9.5;;;7;;
61570;SDS011;47463;49.884;10.010;2023-06-24T21:45:00;8.6;;;6.2;;
61570;SDS011;47463;49.884;10.010;2023-06-24T21:50:00;9.7;;;6.9;;
61570;SDS011;47463;49.884;10.010;2023-06-24T21:55:00;6.9;;;6.1;;
61570;SDS011;47463;49.884;10.010;2023-06-24T22:00:00;8.6;;;6.3;;
61570;SDS011;47463;49.884;10.010;2023-06-24T22:05:00;8;;;5.9;;
61570;SDS011;47463;49.884;10.010;2023-06-24T22:10:00;8;;;5.9;;
61570;SDS011;47463;49.884;10.010;2023-06-24T22:15:00;8.3;;;6.1;;
61570;SDS011;47463;49.884;10.010;2023-06-24T22:20:00;7.6;;;6.1;;
61570;SDS011;47463;49.884;10.010;2023-06-24T22:25:00;9.9;;;6.7;;
61570;SDS011;47463;49.884;10.010;2023-06-24T22:30:00;9.4;;;6;;
61570;SDS011;47463;49.884;10.010;2023-06-24T22:35:00;8.4;;;6.4;;
61570;SDS011;47463;49.884;10.010;2023-06-24T22:40:00;8.4;;;6.4;;
61570;SDS011;47463;49.884;10.010;2023-06-24T22:45:00;9.7;;;6.4;;
61570;SDS011;47463;49.884;10.010;2023-06-24T22:50:00;8.4;;;6.2;;
61570;SDS011;47463;49.884;10.010;2023-06-24T22:55:00;7.4;;;6.4;;
61570;SDS011;47463;49.884;10.010;2023-06-24T23:00:00;9.6;;;6.2;;
61570;SDS011;47463;49.884;10.010;2023-06-24T23:05:00;9.8;;;6.7;;
61570;SDS011;47463;49.884;10.010;2023-06-24T23:10:00;9.8;;;6.7;;
61570;SDS011;47463;49.884;10.010;2023-06-24T23:15:00;9.3;;;6.9;;
61570;SDS011;47463;49.884;10.010;2023-06-24T23:20:00;7.5;;;6.3;;
61570;SDS011;47463;49.884;10.010;2023-06-24T23:25:00;9.5;;;6.8;;
61570;SDS011;47463;49.884;10.010;2023-06-24T23:30:00;7.3;;;6.3;;
61570;SDS011;47463;49.884;10.010;2023-06-24T23:35:00;8.7;;;7.1;;
61570;SDS011;47463;49.884;10.010;2023-06-24T23:40:00;8.7;;;7.1;;
61570;SDS011;47463;49.884;10.010;2023-06-24T23:45:00;9.4;;;6.8;;
61570;SDS011;47463;49.884;10.010;2023-06-24T23:50:00;7.9;;;6.3;;
61570;SDS011;47463;49.884;10.010;2023-06-24T23:55:00;9.7;;;7.3;;
